createdAt,value
2019-01-23T08:39:08.630Z,26.48
2019-01-23T08:44:15.302Z,29.10
2019-01-23T08:49:21.700Z,16.40
2019-01-23T08:59:35.056Z,31.77
2019-01-23T09:04:41.541Z,27.50
2019-01-23T09:09:47.816Z,27.63
2019-01-23T09:14:54.381Z,26.13
2019-01-23T09:20:00.701Z,28.95
2019-01-23T09:25:07.287Z,31.10
2019-01-23T09:40:26.284Z,30.32
2019-01-23T09:45:32.690Z,29.27
2019-01-23T09:50:38.996Z,20.10
2019-01-23T09:55:45.559Z,30.00
2019-01-23T10:05:58.035Z,30.13
2019-01-23T10:11:04.584Z,30.57
2019-01-23T10:16:10.997Z,29.97
2019-01-23T10:21:17.551Z,31.40
2019-01-23T10:26:23.983Z,33.00
2019-01-23T10:31:30.465Z,34.33
2019-01-23T10:36:36.994Z,30.47
2019-01-23T10:41:43.480Z,29.80
2019-01-23T10:51:55.910Z,27.90
2019-01-23T10:57:02.825Z,31.50
2019-01-23T11:02:09.316Z,30.47
2019-01-23T11:07:15.688Z,29.10
2019-01-23T11:17:27.969Z,27.93
2019-01-23T11:22:34.529Z,29.48
2019-01-23T11:27:40.975Z,28.70
2019-01-23T11:32:47.295Z,26.57
2019-01-23T11:37:53.693Z,26.63
2019-01-23T11:48:06.530Z,23.53
2019-01-23T11:53:13.526Z,22.13
2019-01-23T12:03:26.489Z,18.63
2019-01-23T12:08:32.945Z,19.63
2019-01-23T12:13:39.669Z,20.93
2019-01-23T12:18:45.977Z,20.20
2019-01-23T12:23:58.271Z,21.63
2019-01-23T12:29:00.651Z,20.90
2019-01-23T12:39:13.401Z,20.83
2019-01-23T12:44:19.781Z,18.80
2019-01-23T12:49:26.274Z,17.82
2019-01-23T12:54:32.646Z,20.80
2019-01-23T13:04:45.405Z,19.53
2019-01-23T13:14:57.771Z,12.87
2019-01-23T13:20:04.276Z,15.13
2019-01-23T13:25:10.723Z,16.40
2019-01-23T13:30:17.268Z,17.82
2019-01-23T13:35:23.692Z,14.00
2019-01-23T13:40:31.944Z,16.47
2019-01-23T13:45:42.980Z,14.87
2019-01-23T13:50:52.986Z,17.23
2019-01-23T13:56:00.749Z,14.40
2019-01-23T14:01:07.616Z,17.13
2019-01-23T14:16:37.347Z,15.83
2019-01-23T14:21:46.371Z,16.10
2019-01-23T14:26:58.008Z,15.25
2019-01-23T14:37:18.994Z,15.23
2019-01-23T14:42:30.307Z,15.83
2019-01-23T14:48:01.013Z,18.07
2019-01-23T14:53:08.090Z,18.20
2019-01-23T14:58:16.300Z,16.83
2019-01-23T15:03:22.739Z,14.03
2019-01-23T15:08:29.407Z,12.90
2019-01-23T15:13:39.294Z,13.30
2019-01-23T15:23:56.617Z,12.58
2019-01-23T15:29:03.026Z,13.05
2019-01-23T15:34:09.544Z,12.85
2019-01-23T15:39:16.448Z,13.03
2019-01-23T15:44:23.095Z,14.17
2019-01-23T15:49:29.629Z,13.40
2019-01-23T15:59:42.653Z,17.20
2019-01-23T16:04:49.347Z,15.03
2019-01-23T16:09:56.001Z,18.80
2019-01-23T16:15:03.876Z,15.87
2019-01-23T16:25:18.619Z,16.23
2019-01-23T16:30:25.370Z,16.23
2019-01-23T16:40:45.008Z,20.53
2019-01-23T16:46:08.562Z,17.23
2019-01-23T16:51:15.969Z,15.70
2019-01-23T17:01:29.991Z,15.58
2019-01-23T17:11:42.988Z,16.80
2019-01-23T17:16:50.279Z,19.07
2019-01-23T17:21:58.361Z,20.07
2019-01-23T17:27:05.615Z,20.40
2019-01-23T21:38:29.992Z,62.20
2019-01-23T21:43:37.062Z,60.53
2019-01-23T21:48:44.711Z,57.83
2019-01-23T21:58:57.595Z,56.07
2019-01-23T22:09:12.657Z,55.30
2019-01-23T22:14:19.983Z,55.03
2019-01-23T22:19:26.546Z,58.35
2019-01-23T22:24:33.636Z,53.83
2019-01-23T22:29:41.281Z,53.08
2019-01-23T22:34:47.635Z,52.48
2019-01-23T22:39:54.279Z,52.17
2019-01-23T22:45:00.692Z,55.10
2019-01-23T22:50:06.998Z,58.42
2019-01-23T22:55:13.557Z,60.73
2019-01-23T23:00:19.988Z,60.50
2019-01-23T23:05:27.353Z,52.17
2019-01-23T23:10:33.723Z,54.90
2019-01-23T23:15:40.274Z,54.83
2019-01-23T23:20:46.684Z,51.20
2019-01-23T23:25:53.289Z,49.47
2019-01-23T23:30:59.683Z,43.48
2019-01-23T23:36:06.276Z,42.23
2019-01-23T23:41:12.623Z,36.70
2019-01-23T23:46:19.101Z,36.47
2019-01-23T23:51:25.583Z,36.58
2019-01-23T23:56:32.063Z,39.00
